sensor_id;sensor_type;location;lat;lon;timestamp;P1;durP1;ratioP1;P2;durP2;ratioP2
36137;SDS011;67787;50.074;21.904;2023-04-01T00:01:24;22.30;;;11.20;;
36137;SDS011;67787;50.074;21.904;2023-04-01T00:03:54;25.60;;;13.20;;
36137;SDS011;67787;50.074;21.904;2023-04-01T00:06:22;24.40;;;12.20;;
36137;SDS011;67787;50.074;21.904;2023-04-01T00:08:50;24.10;;;12.20;;
36137;SDS011;67787;50.074;21.904;2023-04-01T00:11:18;23.10;;;12.20;;
36137;SDS011;67787;50.074;21.904;2023-04-01T00:13:47;25.70;;;12.40;;
36137;SDS011;67787;50.074;21.904;2023-04-01T00:16:15;21.60;;;11.20;;
36137;SDS011;67787;50.074;21.904;2023-04-01T00:18:50;23.60;;;12.30;;
36137;SDS011;67787;50.074;21.904;2023-04-01T00:21:18;23.20;;;11.80;;
36137;SDS011;67787;50.074;21.904;2023-04-01T00:23:48;23.40;;;11.80;;
36137;SDS011;67787;50.074;21.904;2023-04-01T00:26:17;24.40;;;12.60;;
36137;SDS011;67787;50.074;21.904;2023-04-01T00:28:48;23.20;;;11.70;;
36137;SDS011;67787;50.074;21.904;2023-04-01T00:31:17;24.20;;;12.40;;
36137;SDS011;67787;50.074;21.904;2023-04-01T00:33:46;23.40;;;12.40;;
36137;SDS011;67787;50.074;21.904;2023-04-01T00:36:18;24.50;;;12.60;;
36137;SDS011;67787;50.074;21.904;2023-04-01T00:38:49;24.70;;;11.40;;
36137;SDS011;67787;50.074;21.904;2023-04-01T00:41:18;23.60;;;11.70;;
36137;SDS011;67787;50.074;21.904;2023-04-01T00:43:50;21.80;;;11.30;;
36137;SDS011;67787;50.074;21.904;2023-04-01T00:46:19;23.60;;;11.80;;
36137;SDS011;67787;50.074;21.904;2023-04-01T00:48:48;24.20;;;11.60;;
36137;SDS011;67787;50.074;21.904;2023-04-01T00:51:28;23.10;;;12.10;;
36137;SDS011;67787;50.074;21.904;2023-04-01T00:53:58;22.60;;;11.50;;
36137;SDS011;67787;50.074;21.904;2023-04-01T00:56:32;22.10;;;11.70;;
36137;SDS011;67787;50.074;21.904;2023-04-01T00:59:06;22.20;;;11.10;;
36137;SDS011;67787;50.074;21.904;2023-04-01T01:01:38;20.90;;;10.60;;
36137;SDS011;67787;50.074;21.904;2023-04-01T01:04:06;21.90;;;11.50;;
36137;SDS011;67787;50.074;21.904;2023-04-01T01:14:54;23.20;;;11.40;;
36137;SDS011;67787;50.074;21.904;2023-04-01T01:26:46;22.00;;;11.10;;
36137;SDS011;67787;50.074;21.904;2023-04-01T01:29:42;21.80;;;10.00;;
36137;SDS011;67787;50.074;21.904;2023-04-01T01:35:21;23.70;;;11.80;;
36137;SDS011;67787;50.074;21.904;2023-04-01T01:37:58;21.50;;;10.90;;
36137;SDS011;67787;50.074;21.904;2023-04-01T01:40:31;23.40;;;12.00;;
36137;SDS011;67787;50.074;21.904;2023-04-01T01:43:04;22.70;;;11.50;;
36137;SDS011;67787;50.074;21.904;2023-04-01T01:45:40;21.90;;;11.20;;
36137;SDS011;67787;50.074;21.904;2023-04-01T01:48:14;20.60;;;10.20;;
36137;SDS011;67787;50.074;21.904;2023-04-01T01:50:44;22.60;;;11.40;;
36137;SDS011;67787;50.074;21.904;2023-04-01T01:53:14;21.50;;;10.40;;
36137;SDS011;67787;50.074;21.904;2023-04-01T01:55:44;21.30;;;9.70;;
36137;SDS011;67787;50.074;21.904;2023-04-01T01:58:22;21.60;;;10.10;;
36137;SDS011;67787;50.074;21.904;2023-04-01T02:01:12;21.00;;;10.70;;
36137;SDS011;67787;50.074;21.904;2023-04-01T02:03:44;20.10;;;9.80;;
36137;SDS011;67787;50.074;21.904;2023-04-01T02:06:15;19.60;;;9.70;;
36137;SDS011;67787;50.074;21.904;2023-04-01T02:08:56;20.20;;;10.20;;
36137;SDS011;67787;50.074;21.904;2023-04-01T02:14:28;20.30;;;10.20;;
36137;SDS011;67787;50.074;21.904;2023-04-01T02:17:05;21.80;;;10.30;;
36137;SDS011;67787;50.074;21.904;2023-04-01T02:22:09;20.00;;;9.80;;
36137;SDS011;67787;50.074;21.904;2023-04-01T02:24:41;19.80;;;9.50;;
36137;SDS011;67787;50.074;21.904;2023-04-01T02:27:10;21.80;;;10.10;;
36137;SDS011;67787;50.074;21.904;2023-04-01T02:29:41;21.00;;;10.90;;
36137;SDS011;67787;50.074;21.904;2023-04-01T02:32:08;19.90;;;10.00;;
36137;SDS011;67787;50.074;21.904;2023-04-01T02:34:38;21.20;;;9.80;;
36137;SDS011;67787;50.074;21.904;2023-04-01T02:37:07;19.00;;;9.40;;
36137;SDS011;67787;50.074;21.904;2023-04-01T02:39:35;21.90;;;10.30;;
36137;SDS011;67787;50.074;21.904;2023-04-01T02:42:03;19.20;;;10.00;;
36137;SDS011;67787;50.074;21.904;2023-04-01T02:44:32;19.80;;;10.20;;
36137;SDS011;67787;50.074;21.904;2023-04-01T02:47:00;20.00;;;10.20;;
36137;SDS011;67787;50.074;21.904;2023-04-01T02:49:29;21.40;;;10.30;;
36137;SDS011;67787;50.074;21.904;2023-04-01T02:51:57;21.40;;;9.80;;
36137;SDS011;67787;50.074;21.904;2023-04-01T02:54:24;20.60;;;9.90;;
36137;SDS011;67787;50.074;21.904;2023-04-01T02:56:52;19.20;;;9.40;;
36137;SDS011;67787;50.074;21.904;2023-04-01T02:59:20;18.50;;;9.30;;
36137;SDS011;67787;50.074;21.904;2023-04-01T03:01:48;20.60;;;9.30;;
36137;SDS011;67787;50.074;21.904;2023-04-01T03:04:17;20.40;;;9.80;;
36137;SDS011;67787;50.074;21.904;2023-04-01T03:06:44;19.80;;;9.50;;
36137;SDS011;67787;50.074;21.904;2023-04-01T03:09:12;16.70;;;8.10;;
36137;SDS011;67787;50.074;21.904;2023-04-01T03:11:40;19.30;;;9.30;;
36137;SDS011;67787;50.074;21.904;2023-04-01T03:14:08;19.10;;;9.10;;
36137;SDS011;67787;50.074;21.904;2023-04-01T03:16:36;19.00;;;8.10;;
36137;SDS011;67787;50.074;21.904;2023-04-01T03:19:04;18.70;;;7.90;;
36137;SDS011;67787;50.074;21.904;2023-04-01T03:21:32;18.90;;;8.10;;
36137;SDS011;67787;50.074;21.904;2023-04-01T03:24:00;18.10;;;8.00;;
36137;SDS011;67787;50.074;21.904;2023-04-01T03:26:29;18.10;;;8.30;;
36137;SDS011;67787;50.074;21.904;2023-04-01T03:28:57;17.30;;;7.90;;
36137;SDS011;67787;50.074;21.904;2023-04-01T03:31:25;15.70;;;7.30;;
36137;SDS011;67787;50.074;21.904;2023-04-01T03:33:54;18.70;;;7.40;;
36137;SDS011;67787;50.074;21.904;2023-04-01T03:36:22;16.80;;;8.20;;
36137;SDS011;67787;50.074;21.904;2023-04-01T03:38:50;17.70;;;7.60;;
36137;SDS011;67787;50.074;21.904;2023-04-01T03:41:18;16.20;;;7.50;;
36137;SDS011;67787;50.074;21.904;2023-04-01T03:43:47;15.80;;;6.80;;
36137;SDS011;67787;50.074;21.904;2023-04-01T03:46:18;18.10;;;7.00;;
36137;SDS011;67787;50.074;21.904;2023-04-01T03:48:47;14.90;;;6.40;;
36137;SDS011;67787;50.074;21.904;2023-04-01T03:51:15;16.00;;;6.00;;
36137;SDS011;67787;50.074;21.904;2023-04-01T03:53:43;14.80;;;5.80;;
36137;SDS011;67787;50.074;21.904;2023-04-01T03:56:11;12.20;;;5.30;;
36137;SDS011;67787;50.074;21.904;2023-04-01T03:58:39;12.30;;;4.90;;
36137;SDS011;67787;50.074;21.904;2023-04-01T04:01:13;13.80;;;5.80;;
36137;SDS011;67787;50.074;21.904;2023-04-01T04:03:44;14.10;;;5.50;;
36137;SDS011;67787;50.074;21.904;2023-04-01T04:06:15;15.90;;;5.30;;
36137;SDS011;67787;50.074;21.904;2023-04-01T04:08:44;16.00;;;5.50;;
36137;SDS011;67787;50.074;21.904;2023-04-01T04:11:12;13.00;;;5.30;;
36137;SDS011;67787;50.074;21.904;2023-04-01T04:13:41;15.20;;;6.20;;
36137;SDS011;67787;50.074;21.904;2023-04-01T04:16:09;14.80;;;5.80;;
36137;SDS011;67787;50.074;21.904;2023-04-01T04:18:39;16.50;;;6.50;;
36137;SDS011;67787;50.074;21.904;2023-04-01T04:21:14;14.80;;;5.80;;
36137;SDS011;67787;50.074;21.904;2023-04-01T04:23:42;16.70;;;5.90;;
36137;SDS011;67787;50.074;21.904;2023-04-01T04:26:12;15.80;;;6.20;;
36137;SDS011;67787;50.074;21.904;2023-04-01T04:28:42;15.30;;;5.60;;
36137;SDS011;67787;50.074;21.904;2023-04-01T04:31:10;14.90;;;5.50;;
36137;SDS011;67787;50.074;21.904;2023-04-01T04:33:39;16.10;;;5.30;;
36137;SDS011;67787;50.074;21.904;2023-04-01T04:36:07;13.90;;;5.30;;
36137;SDS011;67787;50.074;21.904;2023-04-01T04:38:35;14.80;;;5.20;;
36137;SDS011;67787;50.074;21.904;2023-04-01T04:41:07;15.50;;;5.50;;
36137;SDS011;67787;50.074;21.904;2023-04-01T04:43:40;15.40;;;5.10;;
36137;SDS011;67787;50.074;21.904;2023-04-01T04:46:09;16.20;;;5.40;;
36137;SDS011;67787;50.074;21.904;2023-04-01T04:48:38;15.50;;;5.50;;
36137;SDS011;67787;50.074;21.904;2023-04-01T04:51:06;13.50;;;4.70;;
36137;SDS011;67787;50.074;21.904;2023-04-01T04:53:34;12.90;;;4.80;;
36137;SDS011;67787;50.074;21.904;2023-04-01T04:56:02;14.00;;;5.40;;
36137;SDS011;67787;50.074;21.904;2023-04-01T04:58:30;16.10;;;5.60;;
36137;SDS011;67787;50.074;21.904;2023-04-01T05:00:58;16.40;;;5.10;;
36137;SDS011;67787;50.074;21.904;2023-04-01T05:03:27;15.50;;;5.40;;
36137;SDS011;67787;50.074;21.904;2023-04-01T05:05:55;15.90;;;5.40;;
36137;SDS011;67787;50.074;21.904;2023-04-01T05:08:23;17.50;;;6.10;;
36137;SDS011;67787;50.074;21.904;2023-04-01T05:10:51;14.00;;;5.00;;
36137;SDS011;67787;50.074;21.904;2023-04-01T05:13:19;14.80;;;5.80;;
36137;SDS011;67787;50.074;21.904;2023-04-01T05:15:47;13.90;;;4.70;;
36137;SDS011;67787;50.074;21.904;2023-04-01T05:18:15;12.50;;;4.60;;
36137;SDS011;67787;50.074;21.904;2023-04-01T05:20:48;16.10;;;4.90;;
36137;SDS011;67787;50.074;21.904;2023-04-01T05:23:17;16.80;;;5.00;;
36137;SDS011;67787;50.074;21.904;2023-04-01T05:25:45;16.50;;;5.10;;
36137;SDS011;67787;50.074;21.904;2023-04-01T05:28:13;14.00;;;5.20;;
36137;SDS011;67787;50.074;21.904;2023-04-01T05:30:42;13.90;;;4.80;;
36137;SDS011;67787;50.074;21.904;2023-04-01T05:33:12;17.30;;;5.30;;
36137;SDS011;67787;50.074;21.904;2023-04-01T05:35:40;21.30;;;5.30;;
36137;SDS011;67787;50.074;21.904;2023-04-01T05:38:09;15.80;;;5.30;;
36137;SDS011;67787;50.074;21.904;2023-04-01T05:40:36;14.20;;;5.00;;
36137;SDS011;67787;50.074;21.904;2023-04-01T05:43:04;14.70;;;5.60;;
36137;SDS011;67787;50.074;21.904;2023-04-01T05:45:34;20.40;;;6.10;;
36137;SDS011;67787;50.074;21.904;2023-04-01T05:48:02;17.10;;;5.80;;
36137;SDS011;67787;50.074;21.904;2023-04-01T05:50:31;17.80;;;5.90;;
36137;SDS011;67787;50.074;21.904;2023-04-01T05:52:58;20.80;;;7.40;;
36137;SDS011;67787;50.074;21.904;2023-04-01T05:55:26;22.30;;;7.60;;
36137;SDS011;67787;50.074;21.904;2023-04-01T05:57:54;21.90;;;7.70;;
36137;SDS011;67787;50.074;21.904;2023-04-01T06:00:23;19.40;;;4.80;;
36137;SDS011;67787;50.074;21.904;2023-04-01T06:02:50;14.60;;;5.40;;
36137;SDS011;67787;50.074;21.904;2023-04-01T06:05:21;17.10;;;5.80;;
36137;SDS011;67787;50.074;21.904;2023-04-01T06:07:51;19.30;;;6.30;;
36137;SDS011;67787;50.074;21.904;2023-04-01T06:10:32;19.50;;;6.60;;
36137;SDS011;67787;50.074;21.904;2023-04-01T06:16:57;19.50;;;6.40;;
36137;SDS011;67787;50.074;21.904;2023-04-01T06:26:58;11.70;;;4.50;;
36137;SDS011;67787;50.074;21.904;2023-04-01T06:32:38;13.90;;;4.30;;
36137;SDS011;67787;50.074;21.904;2023-04-01T06:46:57;13.30;;;4.10;;
36137;SDS011;67787;50.074;21.904;2023-04-01T06:49:38;11.70;;;4.10;;
36137;SDS011;67787;50.074;21.904;2023-04-01T06:54:54;14.30;;;4.90;;
36137;SDS011;67787;50.074;21.904;2023-04-01T06:57:36;14.20;;;4.80;;
36137;SDS011;67787;50.074;21.904;2023-04-01T07:00:24;12.20;;;4.90;;
36137;SDS011;67787;50.074;21.904;2023-04-01T07:05:28;15.30;;;4.80;;
36137;SDS011;67787;50.074;21.904;2023-04-01T07:08:01;14.40;;;4.50;;
36137;SDS011;67787;50.074;21.904;2023-04-01T07:10:34;16.40;;;4.80;;
36137;SDS011;67787;50.074;21.904;2023-04-01T07:13:24;15.40;;;4.60;;
36137;SDS011;67787;50.074;21.904;2023-04-01T07:16:05;15.20;;;5.10;;
36137;SDS011;67787;50.074;21.904;2023-04-01T07:18:50;13.70;;;4.30;;
36137;SDS011;67787;50.074;21.904;2023-04-01T07:21:29;16.10;;;4.50;;
36137;SDS011;67787;50.074;21.904;2023-04-01T07:24:09;16.40;;;4.90;;
36137;SDS011;67787;50.074;21.904;2023-04-01T07:26:43;14.80;;;4.70;;
36137;SDS011;67787;50.074;21.904;2023-04-01T07:29:13;13.70;;;4.40;;
36137;SDS011;67787;50.074;21.904;2023-04-01T07:31:49;15.90;;;5.20;;
36137;SDS011;67787;50.074;21.904;2023-04-01T07:34:45;13.80;;;4.40;;
36137;SDS011;67787;50.074;21.904;2023-04-01T07:37:23;14.70;;;5.20;;
36137;SDS011;67787;50.074;21.904;2023-04-01T07:43:18;11.90;;;4.30;;
36137;SDS011;67787;50.074;21.904;2023-04-01T07:46:14;13.60;;;4.40;;
36137;SDS011;67787;50.074;21.904;2023-04-01T07:49:28;9.40;;;3.90;;
36137;SDS011;67787;50.074;21.904;2023-04-01T07:52:06;13.00;;;4.10;;
36137;SDS011;67787;50.074;21.904;2023-04-01T07:57:48;10.10;;;3.60;;
36137;SDS011;67787;50.074;21.904;2023-04-01T08:00:27;13.60;;;4.50;;
36137;SDS011;67787;50.074;21.904;2023-04-01T08:03:20;10.30;;;4.20;;
36137;SDS011;67787;50.074;21.904;2023-04-01T08:05:54;10.10;;;3.80;;
36137;SDS011;67787;50.074;21.904;2023-04-01T08:08:39;9.10;;;3.70;;
36137;SDS011;67787;50.074;21.904;2023-04-01T08:11:16;15.70;;;3.70;;
36137;SDS011;67787;50.074;21.904;2023-04-01T08:16:51;14.30;;;3.80;;
36137;SDS011;67787;50.074;21.904;2023-04-01T08:22:21;10.30;;;3.80;;
36137;SDS011;67787;50.074;21.904;2023-04-01T08:24:55;11.60;;;4.20;;
36137;SDS011;67787;50.074;21.904;2023-04-01T08:27:41;10.70;;;4.10;;
36137;SDS011;67787;50.074;21.904;2023-04-01T08:32:47;12.50;;;3.70;;
36137;SDS011;67787;50.074;21.904;2023-04-01T08:35:59;9.90;;;3.50;;
36137;SDS011;67787;50.074;21.904;2023-04-01T08:49:56;13.20;;;4.00;;
36137;SDS011;67787;50.074;21.904;2023-04-01T08:52:41;17.20;;;5.00;;
36137;SDS011;67787;50.074;21.904;2023-04-01T09:00:43;13.10;;;4.10;;
36137;SDS011;67787;50.074;21.904;2023-04-01T09:25:12;8.90;;;3.20;;
36137;SDS011;67787;50.074;21.904;2023-04-01T09:32:40;8.50;;;3.00;;
36137;SDS011;67787;50.074;21.904;2023-04-01T09:50:03;9.00;;;3.00;;
36137;SDS011;67787;50.074;21.904;2023-04-01T10:24:01;9.80;;;4.30;;
36137;SDS011;67787;50.074;21.904;2023-04-01T10:29:30;10.40;;;3.70;;
36137;SDS011;67787;50.074;21.904;2023-04-01T10:37:45;12.10;;;3.80;;
36137;SDS011;67787;50.074;21.904;2023-04-01T11:23:25;16.70;;;5.20;;
36137;SDS011;67787;50.074;21.904;2023-04-01T11:34:57;24.50;;;9.70;;
36137;SDS011;67787;50.074;21.904;2023-04-01T11:40:52;12.50;;;4.20;;
36137;SDS011;67787;50.074;21.904;2023-04-01T11:43:33;9.20;;;3.40;;
36137;SDS011;67787;50.074;21.904;2023-04-01T11:46:21;11.20;;;4.00;;
36137;SDS011;67787;50.074;21.904;2023-04-01T12:05:48;13.80;;;4.40;;
36137;SDS011;67787;50.074;21.904;2023-04-01T12:22:35;9.10;;;3.70;;
36137;SDS011;67787;50.074;21.904;2023-04-01T12:28:41;11.30;;;4.30;;
36137;SDS011;67787;50.074;21.904;2023-04-01T12:31:18;9.30;;;3.30;;
36137;SDS011;67787;50.074;21.904;2023-04-01T12:34:20;8.20;;;3.40;;
36137;SDS011;67787;50.074;21.904;2023-04-01T12:39:52;10.60;;;4.60;;
36137;SDS011;67787;50.074;21.904;2023-04-01T12:42:32;10.90;;;3.90;;
36137;SDS011;67787;50.074;21.904;2023-04-01T12:45:27;9.40;;;3.80;;
36137;SDS011;67787;50.074;21.904;2023-04-01T12:55:45;9.80;;;2.90;;
36137;SDS011;67787;50.074;21.904;2023-04-01T13:15:14;14.70;;;5.00;;
36137;SDS011;67787;50.074;21.904;2023-04-01T13:17:58;15.50;;;4.50;;
36137;SDS011;67787;50.074;21.904;2023-04-01T13:20:36;9.50;;;3.40;;
36137;SDS011;67787;50.074;21.904;2023-04-01T13:26:11;13.60;;;4.70;;
36137;SDS011;67787;50.074;21.904;2023-04-01T13:31:30;12.00;;;4.20;;
36137;SDS011;67787;50.074;21.904;2023-04-01T13:42:35;47.30;;;15.70;;
36137;SDS011;67787;50.074;21.904;2023-04-01T13:48:30;35.20;;;13.10;;
36137;SDS011;67787;50.074;21.904;2023-04-01T14:06:14;32.70;;;13.30;;
36137;SDS011;67787;50.074;21.904;2023-04-01T14:11:45;31.00;;;14.60;;
36137;SDS011;67787;50.074;21.904;2023-04-01T14:42:41;9.60;;;4.00;;
36137;SDS011;67787;50.074;21.904;2023-04-01T14:55:02;17.60;;;7.20;;
36137;SDS011;67787;50.074;21.904;2023-04-01T14:58:04;16.50;;;6.70;;
36137;SDS011;67787;50.074;21.904;2023-04-01T15:19:54;14.60;;;5.50;;
36137;SDS011;67787;50.074;21.904;2023-04-01T15:31:44;7.40;;;3.40;;
36137;SDS011;67787;50.074;21.904;2023-04-01T15:50:26;33.40;;;15.10;;
36137;SDS011;67787;50.074;21.904;2023-04-01T16:06:21;20.50;;;8.60;;
36137;SDS011;67787;50.074;21.904;2023-04-01T16:21:54;29.00;;;11.30;;
36137;SDS011;67787;50.074;21.904;2023-04-01T16:27:24;18.10;;;6.60;;
36137;SDS011;67787;50.074;21.904;2023-04-01T16:32:46;70.60;;;63.40;;
36137;SDS011;67787;50.074;21.904;2023-04-01T16:35:25;35.00;;;25.50;;
36137;SDS011;67787;50.074;21.904;2023-04-01T16:46:25;85.60;;;47.80;;
36137;SDS011;67787;50.074;21.904;2023-04-01T16:51:40;26.90;;;14.90;;
36137;SDS011;67787;50.074;21.904;2023-04-01T16:54:31;21.30;;;9.80;;
36137;SDS011;67787;50.074;21.904;2023-04-01T16:57:02;17.80;;;8.60;;
36137;SDS011;67787;50.074;21.904;2023-04-01T16:59:38;17.70;;;7.80;;
36137;SDS011;67787;50.074;21.904;2023-04-01T17:02:16;16.20;;;7.10;;
36137;SDS011;67787;50.074;21.904;2023-04-01T17:04:48;17.50;;;7.80;;
36137;SDS011;67787;50.074;21.904;2023-04-01T17:21:43;27.20;;;15.00;;
36137;SDS011;67787;50.074;21.904;2023-04-01T17:30:26;21.90;;;11.30;;
36137;SDS011;67787;50.074;21.904;2023-04-01T17:35:40;21.70;;;10.90;;
36137;SDS011;67787;50.074;21.904;2023-04-01T17:43:47;46.50;;;23.30;;
36137;SDS011;67787;50.074;21.904;2023-04-01T17:46:28;35.40;;;17.20;;
36137;SDS011;67787;50.074;21.904;2023-04-01T17:52:12;51.80;;;29.00;;
36137;SDS011;67787;50.074;21.904;2023-04-01T18:09:25;38.80;;;17.70;;
36137;SDS011;67787;50.074;21.904;2023-04-01T18:17:18;75.20;;;40.20;;
36137;SDS011;67787;50.074;21.904;2023-04-01T18:23:03;142.50;;;66.20;;
36137;SDS011;67787;50.074;21.904;2023-04-01T18:25:32;102.30;;;47.40;;
36137;SDS011;67787;50.074;21.904;2023-04-01T18:28:22;279.40;;;121.30;;
36137;SDS011;67787;50.074;21.904;2023-04-01T18:31:06;124.30;;;54.80;;
36137;SDS011;67787;50.074;21.904;2023-04-01T18:33:54;95.50;;;46.20;;
36137;SDS011;67787;50.074;21.904;2023-04-01T18:37:00;136.40;;;67.60;;
36137;SDS011;67787;50.074;21.904;2023-04-01T18:39:35;98.70;;;50.70;;
36137;SDS011;67787;50.074;21.904;2023-04-01T18:42:19;115.70;;;58.20;;
36137;SDS011;67787;50.074;21.904;2023-04-01T18:50:38;65.30;;;33.80;;
36137;SDS011;67787;50.074;21.904;2023-04-01T18:55:57;63.10;;;31.90;;
36137;SDS011;67787;50.074;21.904;2023-04-01T19:04:09;67.40;;;32.40;;
36137;SDS011;67787;50.074;21.904;2023-04-01T19:06:43;53.90;;;25.60;;
36137;SDS011;67787;50.074;21.904;2023-04-01T19:11:52;56.90;;;27.00;;
36137;SDS011;67787;50.074;21.904;2023-04-01T19:20:26;39.10;;;18.30;;
36137;SDS011;67787;50.074;21.904;2023-04-01T19:26:10;72.90;;;31.90;;
36137;SDS011;67787;50.074;21.904;2023-04-01T19:42:26;59.40;;;30.40;;
36137;SDS011;67787;50.074;21.904;2023-04-01T19:56:00;28.10;;;14.30;;
36137;SDS011;67787;50.074;21.904;2023-04-01T20:04:19;32.90;;;14.80;;
36137;SDS011;67787;50.074;21.904;2023-04-01T20:15:40;32.60;;;16.30;;
36137;SDS011;67787;50.074;21.904;2023-04-01T20:18:15;33.60;;;18.10;;
36137;SDS011;67787;50.074;21.904;2023-04-01T20:20:56;34.00;;;17.00;;
36137;SDS011;67787;50.074;21.904;2023-04-01T20:23:41;32.90;;;16.40;;
36137;SDS011;67787;50.074;21.904;2023-04-01T20:26:12;40.50;;;21.50;;
36137;SDS011;67787;50.074;21.904;2023-04-01T20:28:58;38.70;;;20.70;;
36137;SDS011;67787;50.074;21.904;2023-04-01T20:31:41;38.00;;;19.30;;
36137;SDS011;67787;50.074;21.904;2023-04-01T20:34:15;32.70;;;16.70;;
36137;SDS011;67787;50.074;21.904;2023-04-01T20:45:49;30.40;;;15.90;;
36137;SDS011;67787;50.074;21.904;2023-04-01T20:51:05;31.20;;;15.30;;
36137;SDS011;67787;50.074;21.904;2023-04-01T21:03:06;44.90;;;21.50;;
36137;SDS011;67787;50.074;21.904;2023-04-01T21:05:45;56.20;;;27.90;;
36137;SDS011;67787;50.074;21.904;2023-04-01T21:12:04;40.70;;;21.90;;
36137;SDS011;67787;50.074;21.904;2023-04-01T21:14:46;38.10;;;19.90;;
36137;SDS011;67787;50.074;21.904;2023-04-01T21:25:18;40.90;;;25.20;;
36137;SDS011;67787;50.074;21.904;2023-04-01T21:28:08;40.40;;;23.10;;
36137;SDS011;67787;50.074;21.904;2023-04-01T21:36:33;36.10;;;20.00;;
36137;SDS011;67787;50.074;21.904;2023-04-01T21:50:09;32.30;;;17.50;;
36137;SDS011;67787;50.074;21.904;2023-04-01T22:06:47;36.30;;;20.10;;
36137;SDS011;67787;50.074;21.904;2023-04-01T22:20:01;32.80;;;17.10;;
36137;SDS011;67787;50.074;21.904;2023-04-01T22:22:55;40.20;;;21.60;;
36137;SDS011;67787;50.074;21.904;2023-04-01T22:28:34;35.70;;;19.20;;
36137;SDS011;67787;50.074;21.904;2023-04-01T22:31:09;31.50;;;17.20;;
36137;SDS011;67787;50.074;21.904;2023-04-01T22:52:56;37.60;;;20.60;;
36137;SDS011;67787;50.074;21.904;2023-04-01T22:55:33;32.30;;;18.70;;
36137;SDS011;67787;50.074;21.904;2023-04-01T22:58:21;33.40;;;18.10;;
36137;SDS011;67787;50.074;21.904;2023-04-01T23:01:01;30.80;;;16.90;;
36137;SDS011;67787;50.074;21.904;2023-04-01T23:03:43;32.00;;;18.00;;
36137;SDS011;67787;50.074;21.904;2023-04-01T23:06:28;31.10;;;18.60;;
36137;SDS011;67787;50.074;21.904;2023-04-01T23:12:02;33.00;;;17.70;;
36137;SDS011;67787;50.074;21.904;2023-04-01T23:14:41;33.30;;;18.60;;
36137;SDS011;67787;50.074;21.904;2023-04-01T23:19:51;36.50;;;19.70;;
36137;SDS011;67787;50.074;21.904;2023-04-01T23:22:43;38.30;;;20.90;;
36137;SDS011;67787;50.074;21.904;2023-04-01T23:33:56;35.30;;;19.40;;
36137;SDS011;67787;50.074;21.904;2023-04-01T23:36:45;34.10;;;18.50;;
36137;SDS011;67787;50.074;21.904;2023-04-01T23:39:33;33.50;;;18.40;;
36137;SDS011;67787;50.074;21.904;2023-04-01T23:42:15;36.00;;;19.50;;
36137;SDS011;67787;50.074;21.904;2023-04-01T23:44:50;32.50;;;17.60;;
36137;SDS011;67787;50.074;21.904;2023-04-01T23:47:30;31.60;;;16.80;;
36137;SDS011;67787;50.074;21.904;2023-04-01T23:50:00;36.40;;;19.60;;
36137;SDS011;67787;50.074;21.904;2023-04-01T23:52:36;36.30;;;20.00;;
36137;SDS011;67787;50.074;21.904;2023-04-01T23:55:16;34.40;;;18.90;;
